Time;durP1;ratioP1;P1;durP2;ratioP2;P2;SDS_P1;SDS_P2;PMS_P1;PMS_P2;Temp;Humidity;BMP_temperature;BMP_pressure;BME280_temperature;BME280_humidity;BME280_pressure;Samples;Min_cycle;Max_cycle;Signal;HPM_P1;HPM_P2
2022/08/19 00:01:59;;;;;;;8.48;6.43;;;;;;;19.38;93.54;100620.31;4946189;28;20150;-83
2022/08/19 00:04:31;;;;;;;8.60;6.40;;;;;;;19.37;93.50;100626.56;4935223;28;20072;-82
2022/08/19 00:06:58;;;;;;;14.60;6.40;;;;;;;19.35;93.67;100626.63;4916978;28;20106;-81
2022/08/19 00:09:27;;;;;;;7.25;6.25;;;;;;;19.36;93.48;100624.81;4985150;28;20058;-81
2022/08/19 00:11:56;;;;;;;6.25;5.63;;;;;;;19.38;93.41;100615.88;4921042;28;20044;-82
2022/08/19 00:14:23;;;;;;;6.38;5.78;;;;;;;19.40;93.30;100624.63;4895246;28;20056;-82
2022/08/19 00:16:53;;;;;;;6.82;5.63;;;;;;;19.39;92.96;100625.56;4928964;28;20114;-82
2022/08/19 00:19:22;;;;;;;7.30;6.43;;;;;;;19.39;92.95;100627.34;4933309;28;20042;-82
2022/08/19 00:21:48;;;;;;;8.23;6.65;;;;;;;19.36;93.24;100617.75;4912007;28;20051;-82
2022/08/19 00:24:16;;;;;;;8.65;6.78;;;;;;;19.34;93.49;100614.28;4905648;28;20723;-81
2022/08/19 00:26:45;;;;;;;7.53;5.85;;;;;;;19.31;93.82;100595.88;4908071;28;20496;-82
2022/08/19 00:29:19;;;;;;;8.77;7.10;;;;;;;19.26;94.49;100592.56;4909144;28;20056;-82
2022/08/19 00:31:47;;;;;;;7.10;6.35;;;;;;;19.21;94.56;100584.78;4921204;28;20067;-82
2022/08/19 00:34:15;;;;;;;8.88;6.80;;;;;;;19.14;94.63;100573.59;4942786;28;20048;-82
2022/08/19 00:36:43;;;;;;;12.00;6.57;;;;;;;19.03;95.14;100575.88;4904516;28;20066;-83
2022/08/19 00:39:12;;;;;;;6.70;6.10;;;;;;;18.93;95.97;100580.75;4917474;28;20431;-81
2022/08/19 00:41:39;;;;;;;6.93;6.22;;;;;;;18.83;96.25;100585.56;4921646;28;20071;-82
2022/08/19 00:44:10;;;;;;;8.45;7.13;;;;;;;18.78;97.27;100576.94;4930985;28;20481;-82
2022/08/19 00:46:40;;;;;;;9.95;6.72;;;;;;;18.70;97.66;100576.44;4934620;28;20154;-82
2022/08/19 00:49:32;;;;;;;7.50;6.70;;;;;;;18.63;98.20;100585.59;4938575;28;20713;-83
2022/08/19 00:52:23;;;;;;;8.70;6.03;;;;;;;18.54;99.11;100576.25;4921823;28;20036;-82
2022/08/19 00:54:51;;;;;;;6.93;6.03;;;;;;;18.52;99.44;100567.50;4913854;28;20050;-82
2022/08/19 00:57:23;;;;;;;9.57;7.03;;;;;;;18.49;99.38;100568.50;4905032;28;20056;-82
2022/08/19 00:59:53;;;;;;;9.53;7.17;;;;;;;18.48;99.59;100568.56;4950969;28;20521;-81
2022/08/19 01:02:20;;;;;;;10.80;6.07;;;;;;;18.45;99.99;100558.09;4944278;28;20052;-81
2022/08/19 01:04:47;;;;;;;10.93;6.72;;;;;;;18.44;99.80;100553.72;4932400;28;20073;-82
2022/08/19 01:07:14;;;;;;;7.93;6.70;;;;;;;18.40;100.00;100552.16;4905660;28;20779;-82
2022/08/19 01:09:41;;;;;;;10.85;6.57;;;;;;;18.37;100.00;100545.19;4931348;28;20040;-82
2022/08/19 01:12:08;;;;;;;6.78;5.95;;;;;;;18.33;100.00;100543.59;4921767;28;20048;-82
2022/08/19 01:14:37;;;;;;;10.80;7.10;;;;;;;18.29;100.00;100548.16;4946798;28;20101;-82
2022/08/19 01:17:04;;;;;;;8.38;7.20;;;;;;;18.26;100.00;100545.63;4935715;28;20055;-82
2022/08/19 01:19:38;;;;;;;10.35;6.95;;;;;;;18.21;100.00;100539.66;4930736;28;20503;-82
2022/08/19 01:22:15;;;;;;;7.30;6.60;;;;;;;18.15;100.00;100551.41;4912460;28;20112;-82
2022/08/19 01:24:42;;;;;;;10.77;8.23;;;;;;;18.12;100.00;100556.84;4916814;28;20455;-81
2022/08/19 01:27:09;;;;;;;12.57;7.53;;;;;;;18.13;100.00;100547.09;4922886;28;20052;-82
2022/08/19 01:29:40;;;;;;;7.50;6.68;;;;;;;18.11;100.00;100544.50;4907174;28;20076;-82
2022/08/19 01:32:11;;;;;;;9.10;7.22;;;;;;;18.11;100.00;100547.16;4932309;28;20487;-81
2022/08/19 01:34:38;;;;;;;9.60;6.82;;;;;;;18.07;100.00;100550.88;4913492;28;20050;-81
2022/08/19 01:37:11;;;;;;;9.98;6.53;;;;;;;18.09;100.00;100554.28;4929818;28;20044;-82
2022/08/19 01:39:40;;;;;;;7.63;6.80;;;;;;;18.10;100.00;100553.38;4922278;28;20048;-83
2022/08/19 01:42:11;;;;;;;9.68;7.55;;;;;;;18.12;100.00;100559.47;4919324;28;20044;-82
2022/08/19 01:44:41;;;;;;;8.68;7.32;;;;;;;18.12;100.00;100550.66;4898537;28;20056;-82
2022/08/19 01:47:10;;;;;;;12.77;8.13;;;;;;;18.10;100.00;100544.56;4946080;28;20046;-82
2022/08/19 01:49:38;;;;;;;7.97;7.18;;;;;;;18.08;100.00;100539.34;4920041;28;20048;-82
2022/08/19 01:52:08;;;;;;;9.55;7.95;;;;;;;18.09;100.00;100529.59;4923390;28;20062;-82
2022/08/19 01:54:35;;;;;;;12.90;8.27;;;;;;;18.08;100.00;100525.22;4913465;28;20044;-81
2022/08/19 01:57:10;;;;;;;9.25;8.23;;;;;;;18.08;100.00;100526.09;4930328;28;20055;-82
2022/08/19 01:59:39;;;;;;;9.40;7.60;;;;;;;18.05;100.00;100522.72;4938431;28;20129;-82
2022/08/19 02:02:07;;;;;;;9.25;7.07;;;;;;;18.07;100.00;100528.78;4922510;28;20052;-81
2022/08/19 02:04:34;;;;;;;9.90;6.53;;;;;;;18.08;100.00;100534.06;4907513;28;20047;-81
2022/08/19 02:07:01;;;;;;;7.55;6.82;;;;;;;18.12;100.00;100534.75;4914888;28;20058;-83
2022/08/19 02:09:33;;;;;;;10.25;7.05;;;;;;;18.14;100.00;100523.16;4900627;28;20114;-83
2022/08/19 02:11:59;;;;;;;8.30;7.50;;;;;;;18.19;100.00;100529.13;4907391;28;20041;-83
2022/08/19 02:14:26;;;;;;;9.65;7.30;;;;;;;18.22;100.00;100540.53;4913228;28;20524;-82
2022/08/19 02:16:53;;;;;;;7.60;6.90;;;;;;;18.29;100.00;100542.00;4929418;28;20106;-82
2022/08/19 02:19:20;;;;;;;8.55;6.93;;;;;;;18.31;100.00;100545.44;4911650;28;20048;-81
2022/08/19 02:21:47;;;;;;;13.15;8.40;;;;;;;18.34;100.00;100545.31;4923017;28;20051;-83
2022/08/19 02:24:13;;;;;;;8.02;7.00;;;;;;;18.33;100.00;100539.16;4928240;28;20051;-81
2022/08/19 02:26:41;;;;;;;9.30;7.00;;;;;;;18.33;100.00;100533.00;4940851;28;20525;-82
2022/08/19 02:29:08;;;;;;;12.00;7.97;;;;;;;18.31;100.00;100533.03;4926608;28;20399;-82
2022/08/19 02:31:37;;;;;;;7.20;6.28;;;;;;;18.29;100.00;100529.63;4919775;28;21323;-82
2022/08/19 02:34:04;;;;;;;8.13;7.15;;;;;;;18.26;100.00;100524.44;4931551;28;20135;-83
2022/08/19 02:36:31;;;;;;;7.63;6.45;;;;;;;18.27;100.00;100525.31;4902604;28;20052;-82
2022/08/19 02:38:57;;;;;;;8.57;6.75;;;;;;;18.29;100.00;100524.31;4927220;28;20131;-83
2022/08/19 02:41:29;;;;;;;9.25;7.90;;;;;;;18.31;100.00;100518.94;4924151;28;20122;-82
2022/08/19 02:43:58;;;;;;;12.13;7.20;;;;;;;18.32;100.00;100518.03;4923494;28;20052;-83
2022/08/19 02:46:29;;;;;;;9.68;6.90;;;;;;;18.29;100.00;100526.09;4915405;28;20056;-82
2022/08/19 02:49:03;;;;;;;11.68;7.95;;;;;;;18.28;100.00;100521.75;4912967;28;20406;-82
2022/08/19 02:51:36;;;;;;;9.18;8.07;;;;;;;18.26;100.00;100521.78;4913789;28;20473;-82
2022/08/19 02:54:04;;;;;;;8.30;6.70;;;;;;;18.24;100.00;100522.78;4926678;28;20058;-82
2022/08/19 02:56:31;;;;;;;10.27;7.10;;;;;;;18.21;100.00;100520.28;4911673;28;20052;-82
2022/08/19 02:59:01;;;;;;;9.30;7.05;;;;;;;18.17;100.00;100532.78;4942098;28;20051;-82
2022/08/19 03:01:34;;;;;;;9.05;7.07;;;;;;;18.15;100.00;100526.69;4951624;28;20055;-82
2022/08/19 03:04:04;;;;;;;8.27;7.17;;;;;;;18.12;100.00;100524.16;4924396;28;20071;-82
2022/08/19 03:06:31;;;;;;;11.57;7.22;;;;;;;18.09;100.00;100519.84;4923990;28;20704;-82
2022/08/19 03:09:01;;;;;;;10.55;7.28;;;;;;;18.07;100.00;100524.38;4919922;28;20051;-81
2022/08/19 03:11:32;;;;;;;10.18;7.35;;;;;;;18.04;100.00;100526.28;4907580;28;20071;-81
2022/08/19 03:14:00;;;;;;;6.80;6.18;;;;;;;18.00;100.00;100530.84;4935935;28;20411;-83
2022/08/19 03:16:30;;;;;;;6.97;6.15;;;;;;;18.00;100.00;100523.78;4941905;28;20071;-81
2022/08/19 03:19:01;;;;;;;8.75;6.53;;;;;;;17.95;100.00;100535.47;4934371;28;20060;-83
2022/08/19 03:21:34;;;;;;;10.48;7.15;;;;;;;17.90;100.00;100540.06;4895155;28;20412;-82
2022/08/19 03:24:11;;;;;;;12.68;7.53;;;;;;;17.84;100.00;100539.38;4917521;28;20119;-82
2022/08/19 03:26:51;;;;;;;12.27;7.75;;;;;;;17.80;100.00;100542.25;4938085;28;20106;-82
2022/08/19 03:29:21;;;;;;;7.95;6.72;;;;;;;17.77;100.00;100540.59;4936970;28;20048;-81
2022/08/19 03:31:51;;;;;;;8.38;6.75;;;;;;;17.75;100.00;100544.22;4923591;28;20048;-83
2022/08/19 03:34:30;;;;;;;7.07;6.35;;;;;;;17.69;100.00;100538.25;4913684;28;20138;-81
2022/08/19 03:37:06;;;;;;;7.53;6.55;;;;;;;17.65;100.00;100541.94;4913437;28;20103;-83
2022/08/19 03:39:33;;;;;;;8.57;6.68;;;;;;;17.62;100.00;100541.19;4933998;28;20056;-82
2022/08/19 03:42:01;;;;;;;8.43;7.53;;;;;;;17.57;100.00;100540.50;4900298;28;20067;-82
2022/08/19 03:44:29;;;;;;;9.80;7.28;;;;;;;17.51;100.00;100553.06;4922529;28;20052;-81
2022/08/19 03:47:00;;;;;;;7.25;6.25;;;;;;;17.48;100.00;100571.72;4930081;28;20087;-82
2022/08/19 03:49:31;;;;;;;7.95;6.75;;;;;;;17.45;100.00;100569.19;4898516;28;20059;-82
2022/08/19 03:52:00;;;;;;;10.15;6.57;;;;;;;17.42;100.00;100568.47;4912344;28;20048;-82
2022/08/19 03:54:28;;;;;;;6.93;6.28;;;;;;;17.40;100.00;100562.34;4946743;28;21019;-82
2022/08/19 03:56:59;;;;;;;8.45;6.53;;;;;;;17.40;100.00;100570.28;4922069;28;20411;-82
2022/08/19 03:59:32;;;;;;;8.20;6.10;;;;;;;17.39;100.00;100561.50;4894473;28;20102;-82
2022/08/19 04:02:04;;;;;;;10.55;6.95;;;;;;;17.41;100.00;100561.44;4916439;28;20059;-83
2022/08/19 04:04:31;;;;;;;7.50;6.80;;;;;;;17.37;100.00;100555.41;4916683;28;20577;-81
2022/08/19 04:06:58;;;;;;;10.13;6.20;;;;;;;17.36;100.00;100553.66;4935771;28;20059;-82
2022/08/19 04:09:29;;;;;;;8.55;6.57;;;;;;;17.33;100.00;100557.28;4932078;28;20135;-82
2022/08/19 04:11:58;;;;;;;9.73;6.43;;;;;;;17.30;100.00;100568.00;4906992;28;20175;-83
2022/08/19 04:14:31;;;;;;;9.45;6.20;;;;;;;17.28;100.00;100566.34;4916009;28;20089;-80
2022/08/19 04:17:01;;;;;;;9.80;7.22;;;;;;;17.25;100.00;100577.91;4924376;28;20044;-82
2022/08/19 04:19:31;;;;;;;8.05;7.00;;;;;;;17.18;100.00;100579.91;4935862;28;20144;-81
2022/08/19 04:21:59;;;;;;;10.52;7.82;;;;;;;17.15;100.00;100582.66;4906606;28;20052;-82
2022/08/19 04:24:26;;;;;;;9.13;7.70;;;;;;;17.12;100.00;100577.50;4933749;28;20044;-81
2022/08/19 04:26:53;;;;;;;9.02;7.78;;;;;;;17.07;100.00;100574.16;4925778;28;20060;-84
2022/08/19 04:29:24;;;;;;;11.32;7.47;;;;;;;17.04;100.00;100574.28;4917206;28;20052;-82
2022/08/19 04:31:54;;;;;;;8.43;7.50;;;;;;;17.04;100.00;100574.28;4907968;28;20136;-82
2022/08/19 04:34:24;;;;;;;7.70;7.10;;;;;;;17.03;100.00;100569.91;4911181;28;20100;-83
2022/08/19 04:36:54;;;;;;;9.27;7.47;;;;;;;17.03;100.00;100564.63;4897479;28;20063;-84
2022/08/19 04:42:38;;;;;;;8.85;7.55;;;;;;;17.04;100.00;100561.06;4890482;28;20043;-85
2022/08/19 04:45:09;;;;;;;9.65;7.47;;;;;;;17.02;100.00;100554.97;4941234;28;20048;-83
2022/08/19 04:47:39;;;;;;;7.68;6.93;;;;;;;17.01;100.00;100558.50;4926478;28;20048;-84
2022/08/19 04:50:11;;;;;;;10.75;7.97;;;;;;;17.02;100.00;100560.25;4915227;28;20132;-84
2022/08/19 04:52:42;;;;;;;8.80;7.55;;;;;;;17.02;100.00;100566.38;4909051;28;20135;-81
2022/08/19 04:55:11;;;;;;;8.55;6.97;;;;;;;17.00;100.00;100573.53;4925475;28;20052;-81
2022/08/19 04:57:39;;;;;;;8.88;7.07;;;;;;;16.99;100.00;100570.94;4933724;28;20094;-82
2022/08/19 05:00:09;;;;;;;9.80;6.55;;;;;;;17.02;100.00;100571.66;4961231;28;20488;-84
2022/08/19 05:02:35;;;;;;;10.15;6.75;;;;;;;17.07;100.00;100570.66;4897253;28;20040;-84
2022/08/19 05:05:06;;;;;;;8.85;6.95;;;;;;;17.10;100.00;100581.13;4945454;28;20058;-82
2022/08/19 05:07:32;;;;;;;7.70;6.55;;;;;;;17.12;100.00;100581.94;4885892;28;20086;-81
2022/08/19 05:09:59;;;;;;;12.65;9.05;;;;;;;17.15;100.00;100589.75;4906348;28;20060;-81
2022/08/19 05:12:27;;;;;;;9.27;7.70;;;;;;;17.19;100.00;100584.28;4921203;28;20036;-81
2022/08/19 05:15:02;;;;;;;9.95;7.53;;;;;;;17.24;100.00;100585.91;4928455;28;20121;-81
2022/08/19 05:17:33;;;;;;;13.88;8.50;;;;;;;17.26;100.00;100586.69;4915397;28;20056;-82
2022/08/19 05:22:47;;;;;;;13.95;9.30;;;;;;;17.36;100.00;100572.19;4951578;28;20640;-82
2022/08/19 05:25:20;;;;;;;10.38;8.95;;;;;;;17.40;100.00;100565.84;4919867;28;20135;-82
2022/08/19 05:27:49;;;;;;;9.13;8.07;;;;;;;17.42;100.00;100569.31;4932412;28;20041;-82
2022/08/19 05:30:17;;;;;;;12.57;9.85;;;;;;;17.44;100.00;100567.47;4914174;28;20033;-82
2022/08/19 05:32:44;;;;;;;12.98;9.60;;;;;;;17.46;100.00;100557.69;4923792;28;20052;-81
2022/08/19 05:35:13;;;;;;;15.10;9.73;;;;;;;17.49;100.00;100559.34;4914224;28;20059;-82
2022/08/19 05:37:41;;;;;;;14.02;8.73;;;;;;;17.55;100.00;100560.88;4914922;28;20048;-81
2022/08/19 05:40:12;;;;;;;13.82;8.52;;;;;;;17.63;100.00;100572.03;4899890;28;20056;-84
2022/08/19 05:42:39;;;;;;;14.02;9.18;;;;;;;17.71;100.00;100558.50;4937089;28;20062;-82
2022/08/19 05:45:07;;;;;;;14.30;8.52;;;;;;;17.75;100.00;100560.09;4929875;28;20105;-81
2022/08/19 05:47:35;;;;;;;12.55;9.68;;;;;;;17.71;100.00;100569.94;4933642;28;20049;-81
2022/08/19 05:50:02;;;;;;;13.77;9.27;;;;;;;17.71;100.00;100569.09;4907636;28;20065;-81
2022/08/19 05:52:31;;;;;;;17.08;10.50;;;;;;;17.72;100.00;100554.91;4897614;28;20423;-82
2022/08/19 05:55:00;;;;;;;10.75;8.52;;;;;;;17.77;100.00;100561.75;4919535;28;20130;-83
2022/08/19 05:57:50;;;;;;;13.57;9.52;;;;;;;17.81;100.00;100565.16;4922689;28;20051;-83
2022/08/19 06:00:24;;;;;;;12.63;9.10;;;;;;;17.88;100.00;100571.91;4941247;28;20726;-83
2022/08/19 06:03:03;;;;;;;15.60;10.13;;;;;;;17.96;100.00;100569.81;4918814;28;20083;-83
2022/08/19 06:05:33;;;;;;;14.63;10.88;;;;;;;18.02;100.00;100571.38;4938805;28;20052;-85
2022/08/19 06:08:00;;;;;;;14.93;11.13;;;;;;;17.98;100.00;100572.44;4915655;28;20159;-82
2022/08/19 06:10:27;;;;;;;16.55;12.23;;;;;;;17.94;100.00;100577.00;4922562;28;20051;-82
2022/08/19 06:12:55;;;;;;;33.70;14.18;;;;;;;17.95;100.00;100577.84;4897320;28;20045;-82
2022/08/19 06:15:25;;;;;;;16.63;11.18;;;;;;;17.93;100.00;100587.66;4924367;28;20147;-82
2022/08/19 06:17:55;;;;;;;15.75;11.85;;;;;;;17.93;100.00;100583.22;4924526;28;20189;-81
2022/08/19 06:20:22;;;;;;;15.55;10.50;;;;;;;17.93;100.00;100577.91;4937085;28;20625;-81
2022/08/19 06:22:52;;;;;;;15.70;12.20;;;;;;;17.93;100.00;100579.72;4943340;28;20086;-82
2022/08/19 06:25:22;;;;;;;14.75;12.15;;;;;;;17.98;100.00;100585.69;4904593;28;20163;-82
2022/08/19 06:27:48;;;;;;;12.32;10.23;;;;;;;18.06;100.00;100590.66;4904299;28;20243;-81
2022/08/19 06:30:16;;;;;;;14.75;10.90;;;;;;;18.13;100.00;100589.47;4908144;28;20060;-83
2022/08/19 06:32:42;;;;;;;12.55;11.25;;;;;;;18.21;99.43;100594.44;4899972;28;20091;-82
2022/08/19 06:35:10;;;;;;;18.15;12.73;;;;;;;18.28;98.84;100601.22;4923431;28;20134;-82
2022/08/19 06:37:38;;;;;;;17.42;13.38;;;;;;;18.37;97.59;100598.19;4918380;28;20041;-82
2022/08/19 06:40:08;;;;;;;15.32;11.98;;;;;;;18.43;96.53;100595.25;4920878;28;20045;-84
2022/08/19 06:42:40;;;;;;;16.55;12.05;;;;;;;18.45;95.78;100601.38;4935014;28;20047;-82
2022/08/19 06:45:08;;;;;;;17.20;12.52;;;;;;;18.48;94.93;100603.03;4911117;28;20048;-82
2022/08/19 06:47:36;;;;;;;16.25;12.32;;;;;;;18.51;94.36;100608.19;4910721;28;20040;-83
2022/08/19 06:50:04;;;;;;;19.10;13.93;;;;;;;18.46;94.24;100607.50;4907259;28;20052;-83
2022/08/19 06:52:33;;;;;;;18.67;14.65;;;;;;;18.44;93.52;100612.03;4904499;28;20036;-82
2022/08/19 06:55:02;;;;;;;22.02;14.15;;;;;;;18.44;94.17;100620.84;4940274;28;20136;-81
2022/08/19 06:57:32;;;;;;;19.17;12.55;;;;;;;18.49;94.05;100618.84;4938969;28;20586;-83
2022/08/19 07:00:04;;;;;;;16.65;13.45;;;;;;;18.56;92.74;100615.94;4947176;28;20048;-82
2022/08/19 07:02:30;;;;;;;22.50;15.38;;;;;;;18.59;92.35;100623.75;4932233;28;20050;-83
2022/08/19 07:04:58;;;;;;;16.88;13.52;;;;;;;18.64;91.94;100625.31;4899014;28;20530;-83
2022/08/19 07:07:31;;;;;;;18.20;12.30;;;;;;;18.79;91.03;100628.22;4913089;28;20052;-83
2022/08/19 07:09:57;;;;;;;19.30;12.98;;;;;;;18.93;90.00;100639.13;4916516;28;20050;-84
2022/08/19 07:12:34;;;;;;;17.30;12.80;;;;;;;19.18;88.19;100633.56;4901728;28;20041;-82
2022/08/19 07:15:01;;;;;;;15.88;11.82;;;;;;;19.43;86.89;100637.75;4910967;28;20052;-83
2022/08/19 07:17:29;;;;;;;16.02;12.65;;;;;;;19.71;85.08;100630.28;4910620;28;20079;-84
2022/08/19 07:19:56;;;;;;;16.40;13.38;;;;;;;19.92;81.27;100636.38;4927452;28;20044;-82
2022/08/19 07:22:23;;;;;;;15.48;12.98;;;;;;;19.99;80.57;100645.78;4916767;28;20072;-84
2022/08/19 07:24:52;;;;;;;16.73;13.40;;;;;;;19.98;80.19;100652.03;4929764;28;20044;-82
2022/08/19 07:27:22;;;;;;;14.82;12.45;;;;;;;19.90;80.72;100651.56;4904680;28;20060;-83
2022/08/19 07:29:51;;;;;;;22.63;14.65;;;;;;;19.91;79.69;100647.97;4920408;28;20131;-83
2022/08/19 07:32:22;;;;;;;16.38;13.77;;;;;;;19.98;80.07;100652.03;4928825;28;20040;-83
2022/08/19 07:34:50;;;;;;;15.70;13.30;;;;;;;20.08;79.13;100663.94;4966064;28;20528;-83
2022/08/19 07:37:30;;;;;;;17.80;13.80;;;;;;;20.20;78.70;100673.13;4896493;28;20159;-84
2022/08/19 07:39:57;;;;;;;18.63;13.75;;;;;;;20.24;78.88;100676.50;4925694;28;20048;-83
2022/08/19 07:42:24;;;;;;;19.20;16.45;;;;;;;20.28;77.27;100675.41;4940725;28;20146;-83
2022/08/19 07:44:51;;;;;;;18.35;14.68;;;;;;;20.28;77.79;100681.56;4955694;28;20056;-83
2022/08/19 07:47:18;;;;;;;23.00;15.60;;;;;;;20.40;77.39;100690.75;4908569;28;20053;-83
2022/08/19 07:49:45;;;;;;;17.83;14.05;;;;;;;20.43;76.57;100690.59;4938158;28;20040;-84
2022/08/19 07:52:12;;;;;;;22.23;14.52;;;;;;;20.47;76.32;100694.81;4926544;28;20044;-84
2022/08/19 07:54:41;;;;;;;15.73;12.88;;;;;;;20.51;74.98;100703.50;4919149;28;20048;-82
2022/08/19 07:57:10;;;;;;;19.15;11.77;;;;;;;20.49;76.13;100706.25;4925251;28;20048;-83
2022/08/19 07:59:37;;;;;;;13.38;11.80;;;;;;;20.54;75.13;100707.81;4918144;28;20048;-83
2022/08/19 08:02:06;;;;;;;15.63;11.52;;;;;;;20.63;75.00;100699.38;4906732;28;20058;-83
2022/08/19 08:10:07;;;;;;;13.88;10.73;;;;;;;21.06;73.09;100702.50;4930408;28;20133;-82
2022/08/19 08:12:41;;;;;;;11.88;10.50;;;;;;;21.12;72.33;100709.34;4963047;28;20099;-84
2022/08/19 08:15:12;;;;;;;;;;;;;;;21.11;70.62;100715.59;4923670;28;20078;-83
2022/08/19 08:17:39;;;;;;;13.48;9.18;;;;;;;21.01;71.18;100706.38;4934258;28;19950;-82
2022/08/19 08:20:09;;;;;;;11.95;9.10;;;;;;;20.98;70.59;100708.22;4940624;28;20127;-85
2022/08/19 08:25:28;;;;;;;9.88;7.80;;;;;;;21.36;68.82;100709.81;4939825;28;20050;-83
2022/08/19 08:27:56;;;;;;;13.90;8.55;;;;;;;21.54;68.14;100707.13;4916515;28;20206;-82
2022/08/19 08:30:28;;;;;;;8.63;7.55;;;;;;;21.86;67.09;100704.53;4956099;28;20075;-83
2022/08/19 08:32:57;;;;;;;8.77;7.93;;;;;;;22.18;65.78;100704.53;4912608;28;20040;-82
2022/08/19 08:35:25;;;;;;;8.32;7.55;;;;;;;22.31;64.47;100705.53;4924798;28;20312;-84
2022/08/19 08:37:58;;;;;;;8.27;7.47;;;;;;;22.27;64.52;100699.53;4939765;28;20443;-84
2022/08/19 08:40:53;;;;;;;10.60;7.43;;;;;;;22.20;64.38;100702.63;4948929;28;20079;-83
2022/08/19 08:43:35;;;;;;;7.03;6.43;;;;;;;22.17;63.93;100714.31;4914687;28;20510;-83
2022/08/19 08:46:38;;;;;;;7.93;7.15;;;;;;;22.08;63.08;100706.84;4953446;28;20125;-83
2022/08/19 08:49:48;;;;;;;9.32;8.25;;;;;;;21.98;63.58;100712.69;4932128;28;20060;-82
2022/08/19 08:52:42;;;;;;;11.82;7.60;;;;;;;22.18;62.90;100708.03;4909457;28;20817;-85
2022/08/19 08:55:13;;;;;;;;;;;;;;;22.72;61.77;100709.44;4931857;28;20056;-83
2022/08/19 08:57:50;;;;;;;6.88;6.20;;;;;;;24.02;58.08;100704.19;4935921;28;19973;-83
2022/08/19 09:00:27;;;;;;;8.32;7.53;;;;;;;24.77;54.66;100709.09;4939462;28;20052;-84
2022/08/19 09:02:57;;;;;;;9.35;6.85;;;;;;;24.91;54.43;100706.34;4898812;28;21380;-83
2022/08/19 09:05:42;;;;;;;6.93;6.03;;;;;;;24.96;52.85;100708.69;4918718;28;21033;-83
2022/08/19 09:08:35;;;;;;;6.22;5.68;;;;;;;24.87;52.79;100707.47;4941600;28;20064;-85
2022/08/19 09:11:12;;;;;;;6.50;5.60;;;;;;;24.79;53.79;100699.13;4930678;28;20052;-84
2022/08/19 09:14:04;;;;;;;5.65;5.10;;;;;;;24.67;53.22;100698.13;4937430;28;20059;-84
2022/08/19 09:16:31;;;;;;;7.72;5.15;;;;;;;24.49;51.82;100708.22;4925571;28;20052;-83
2022/08/19 09:19:05;;;;;;;6.00;5.35;;;;;;;24.43;53.47;100708.63;4916047;28;20067;-83
2022/08/19 09:21:32;;;;;;;4.95;3.97;;;;;;;24.68;52.99;100709.69;4927339;28;20135;-83
2022/08/19 09:23:59;;;;;;;6.50;4.30;;;;;;;25.22;50.97;100700.66;4900190;28;20109;-84
2022/08/19 09:26:26;;;;;;;4.68;4.28;;;;;;;25.57;49.77;100708.06;4908833;28;20122;-84
2022/08/19 09:28:54;;;;;;;4.18;3.88;;;;;;;25.64;49.94;100698.59;4934603;28;20052;-82
2022/08/19 09:31:25;;;;;;;4.20;3.45;;;;;;;25.76;49.04;100700.41;4915515;28;20048;-84
2022/08/19 09:33:56;;;;;;;5.95;3.80;;;;;;;25.84;48.78;100690.94;4922278;28;20414;-83
2022/08/19 09:36:43;;;;;;;3.65;3.33;;;;;;;26.32;47.73;100690.13;4905553;28;20166;-83
2022/08/19 09:39:12;;;;;;;5.43;4.55;;;;;;;26.94;46.02;100686.34;4920061;28;20051;-83
2022/08/19 09:41:39;;;;;;;6.13;4.93;;;;;;;27.12;45.21;100678.69;4908823;28;20048;-85
2022/08/19 09:44:06;;;;;;;4.20;3.97;;;;;;;27.70;44.33;100677.72;4928404;28;20052;-82
2022/08/19 09:46:39;;;;;;;3.85;3.55;;;;;;;28.60;42.03;100678.44;4913216;28;20056;-84
2022/08/19 09:49:06;;;;;;;4.05;3.30;;;;;;;29.11;41.34;100687.56;4947183;28;20043;-83
2022/08/19 09:51:34;;;;;;;5.18;3.42;;;;;;;29.02;40.71;100692.78;4911687;28;20102;-84
2022/08/19 09:54:04;;;;;;;4.43;3.42;;;;;;;28.39;42.08;100696.28;4900922;28;20052;-83
2022/08/19 09:56:34;;;;;;;3.95;3.65;;;;;;;28.45;42.39;100689.53;4921920;28;20056;-83
2022/08/19 09:59:03;;;;;;;5.28;3.17;;;;;;;28.54;41.69;100682.50;4915675;28;20050;-85
2022/08/19 10:01:35;;;;;;;3.38;3.00;;;;;;;28.87;41.26;100681.47;4951177;28;20056;-85
2022/08/19 10:04:04;;;;;;;3.55;3.17;;;;;;;30.03;39.17;100689.38;4923966;28;20039;-85
2022/08/19 10:06:35;;;;;;;3.75;2.80;;;;;;;31.67;35.61;100684.88;4942723;28;20793;-85
2022/08/19 10:09:04;;;;;;;2.47;2.35;;;;;;;32.39;34.52;100684.97;4921026;28;20124;-84
2022/08/19 10:11:31;;;;;;;2.53;1.92;;;;;;;32.66;33.12;100688.59;4911814;28;20055;-84
2022/08/19 10:13:59;;;;;;;2.38;2.20;;;;;;;33.42;33.16;100688.94;4903365;28;20056;-86
2022/08/19 10:16:26;;;;;;;4.32;2.67;;;;;;;33.93;32.28;100686.25;4926087;28;20414;-84
2022/08/19 10:18:58;;;;;;;1.88;1.65;;;;;;;34.02;32.16;100677.09;4929612;28;20052;-85
2022/08/19 10:21:34;;;;;;;2.20;2.00;;;;;;;34.68;29.59;100684.44;4937114;28;20079;-85
2022/08/19 10:24:05;;;;;;;2.13;1.77;;;;;;;35.38;29.41;100678.38;4928509;28;20064;-84
2022/08/19 10:26:47;;;;;;;2.55;1.45;;;;;;;35.64;27.91;100679.13;4922124;28;20100;-85
2022/08/19 10:29:19;;;;;;;3.88;1.48;;;;;;;36.34;27.78;100675.50;4917515;28;20476;-87
2022/08/19 10:31:48;;;;;;;2.08;1.45;;;;;;;36.57;26.14;100660.97;4941814;28;20131;-85
2022/08/19 10:34:15;;;;;;;1.50;1.50;;;;;;;36.39;26.75;100672.22;4914057;28;20127;-87
2022/08/19 10:36:43;;;;;;;2.95;1.52;;;;;;;36.67;26.73;100666.16;4902525;28;20891;-86
2022/08/19 10:39:12;;;;;;;1.67;1.58;;;;;;;36.96;26.65;100661.81;4933170;28;20056;-86
2022/08/19 10:41:48;;;;;;;4.53;1.20;;;;;;;36.82;26.91;100653.41;4949263;28;20026;-87
2022/08/19 10:44:21;;;;;;;1.58;1.48;;;;;;;37.47;25.18;100650.13;4959613;28;20038;-86
2022/08/19 10:46:50;;;;;;;1.50;1.40;;;;;;;37.48;25.07;100651.81;4919316;28;20831;-85
2022/08/19 10:49:18;;;;;;;4.47;2.15;;;;;;;37.86;25.04;100649.78;4940818;28;20072;-86
2022/08/19 10:57:16;;;;;;;1.50;1.20;;;;;;;36.83;23.62;100633.31;4943618;28;20123;-86
2022/08/19 10:59:44;;;;;;;1.13;1.13;;;;;;;36.49;24.66;100634.66;4930912;28;20669;-85
2022/08/19 11:02:12;;;;;;;1.15;1.02;;;;;;;36.75;24.39;100634.22;4926440;28;20059;-85
2022/08/19 11:04:41;;;;;;;1.08;1.08;;;;;;;37.69;23.98;100629.16;4941290;28;20048;-86
2022/08/19 11:07:16;;;;;;;2.17;1.20;;;;;;;38.31;23.28;100627.72;4891067;28;20051;-85
2022/08/19 11:09:46;;;;;;;1.65;1.35;;;;;;;38.89;22.29;100629.41;4914753;28;20502;-85
2022/08/19 11:12:15;;;;;;;1.63;1.60;;;;;;;38.46;22.76;100621.31;4919534;28;20078;-86
2022/08/19 11:14:44;;;;;;;1.52;1.27;;;;;;;38.50;23.16;100626.19;4906997;28;20041;-87
2022/08/19 11:17:13;;;;;;;2.65;1.25;;;;;;;38.30;22.84;100631.50;4921072;28;20049;-86
2022/08/19 11:19:41;;;;;;;1.30;1.30;;;;;;;38.48;23.22;100628.28;4929098;28;20044;-88
2022/08/19 11:22:12;;;;;;;1.55;1.45;;;;;;;38.61;22.36;100623.97;4947442;28;20063;-87
2022/08/19 11:24:38;;;;;;;1.52;1.40;;;;;;;38.27;22.44;100615.50;4930841;28;20091;-86
2022/08/19 11:27:14;;;;;;;1.30;1.20;;;;;;;37.86;23.11;100606.06;4930457;28;20056;-88
2022/08/19 11:29:43;;;;;;;1.13;1.02;;;;;;;38.40;23.13;100606.56;4922715;28;20050;-86
2022/08/19 11:32:12;;;;;;;3.17;1.27;;;;;;;38.77;22.40;100611.88;4929965;28;20052;-86
2022/08/19 11:34:44;;;;;;;1.60;1.13;;;;;;;38.39;22.15;100597.50;4933209;28;20044;-86
2022/08/19 11:37:13;;;;;;;1.45;1.33;;;;;;;37.55;23.31;100603.59;4904818;28;20056;-87
2022/08/19 11:39:39;;;;;;;2.53;1.00;;;;;;;37.38;22.93;100601.09;4915830;28;20129;-86
2022/08/19 11:44:56;;;;;;;2.45;1.35;;;;;;;37.73;22.80;100597.69;4940534;28;20060;-86
2022/08/19 11:47:28;;;;;;;1.10;1.08;;;;;;;38.12;23.08;100598.28;4914595;28;20086;-86
2022/08/19 11:49:55;;;;;;;1.73;1.05;;;;;;;38.76;21.85;100601.97;4920986;28;20056;-85
2022/08/19 11:52:22;;;;;;;1.08;0.95;;;;;;;38.37;22.52;100606.94;4935325;28;20123;-88
2022/08/19 11:54:54;;;;;;;1.17;1.00;;;;;;;37.57;23.27;100616.03;4886906;28;20047;-86